Time;durP1;ratioP1;P1;durP2;ratioP2;P2;SDS_P1;SDS_P2;PMS_P1;PMS_P2;Temp;Humidity;BMP_temperature;BMP_pressure;BME280_temperature;BME280_humidity;BME280_pressure;Samples;Min_cycle;Max_cycle;Signal;HPM_P1;HPM_P2
2021/04/22 00:01:30;;;;;;;13.60;3.37;;;;;;;5.23;55.12;100844.72;4953778;28;20046;-85
2021/04/22 00:03:56;;;;;;;7.13;2.90;;;;;;;5.30;53.91;100850.00;4937494;28;20035;-85
2021/04/22 00:06:25;;;;;;;9.73;3.70;;;;;;;5.30;55.50;100844.75;4952141;28;21540;-85
2021/04/22 00:08:51;;;;;;;9.23;4.10;;;;;;;5.31;54.70;100851.75;4955120;28;20085;-86
2021/04/22 00:11:17;;;;;;;9.03;3.47;;;;;;;5.20;55.03;100847.31;4951363;28;20047;-85
2021/04/22 00:13:45;;;;;;;5.73;3.00;;;;;;;5.19;55.81;100849.06;4952396;28;20566;-84
2021/04/22 00:16:12;;;;;;;9.33;3.37;;;;;;;5.25;56.20;100842.97;4953328;28;20042;-85
2021/04/22 00:18:38;;;;;;;10.83;3.30;;;;;;;5.16;56.61;100856.03;4936818;28;20105;-85
2021/04/22 00:21:06;;;;;;;11.33;3.20;;;;;;;5.24;55.95;100851.72;4950570;28;20042;-85
2021/04/22 00:23:32;;;;;;;9.37;3.70;;;;;;;5.28;56.54;100841.22;4929440;28;20039;-86
2021/04/22 00:25:58;;;;;;;13.67;4.47;;;;;;;5.15;57.30;100856.91;4935066;28;20066;-85
2021/04/22 00:28:24;;;;;;;9.37;3.37;;;;;;;5.04;58.09;100857.75;4955318;28;20086;-86
2021/04/22 00:30:51;;;;;;;19.93;4.00;;;;;;;5.06;59.04;100853.38;4945770;28;20081;-86
2021/04/22 00:33:19;;;;;;;11.83;4.07;;;;;;;5.16;58.05;100858.66;4955260;28;20047;-84
2021/04/22 00:35:46;;;;;;;11.70;3.30;;;;;;;5.20;57.93;100852.56;4938556;28;20102;-84
2021/04/22 00:38:13;;;;;;;9.43;4.70;;;;;;;5.22;58.14;100849.09;4954008;28;20049;-85
2021/04/22 00:40:40;;;;;;;10.33;3.37;;;;;;;5.18;59.17;100847.31;4954208;28;20050;-85
2021/04/22 00:43:09;;;;;;;13.90;4.43;;;;;;;5.16;58.94;100854.28;4938589;28;20062;-85
2021/04/22 00:45:41;;;;;;;12.87;3.73;;;;;;;5.17;59.37;100855.16;4936245;28;20075;-85
2021/04/22 00:48:12;;;;;;;16.73;5.10;;;;;;;5.19;58.97;100861.28;4954975;28;20051;-85
2021/04/22 00:50:39;;;;;;;12.20;4.00;;;;;;;5.14;59.63;100852.53;4951418;28;20039;-84
2021/04/22 00:53:06;;;;;;;9.50;3.83;;;;;;;5.15;59.97;100867.38;4954580;28;20043;-85
2021/04/22 00:55:33;;;;;;;9.33;3.73;;;;;;;5.01;60.30;100865.56;4953968;28;20034;-86
2021/04/22 00:58:00;;;;;;;10.37;3.83;;;;;;;5.05;59.69;100871.72;4954257;28;20047;-84
2021/04/22 01:00:36;;;;;;;12.67;4.10;;;;;;;5.11;58.95;100865.59;4953063;28;20098;-85
2021/04/22 01:03:07;;;;;;;12.40;3.63;;;;;;;5.07;60.00;100867.34;4953940;28;20062;-85
2021/04/22 01:05:42;;;;;;;12.70;3.77;;;;;;;5.02;60.12;100861.19;4954371;28;20503;-85
2021/04/22 01:08:08;;;;;;;11.53;4.60;;;;;;;5.00;60.48;100869.06;4954367;28;20042;-86
2021/04/22 01:10:34;;;;;;;22.23;4.23;;;;;;;5.05;59.62;100861.22;4968767;28;20049;-85
2021/04/22 01:13:01;;;;;;;10.83;4.00;;;;;;;5.05;59.94;100864.72;4950981;28;20093;-85
2021/04/22 01:15:29;;;;;;;10.13;3.57;;;;;;;5.05;59.35;100863.84;4950365;28;20047;-85
2021/04/22 01:17:56;;;;;;;7.57;3.47;;;;;;;4.98;59.48;100864.69;4951986;28;20045;-87
2021/04/22 01:20:26;;;;;;;8.07;3.60;;;;;;;4.96;60.68;100869.91;4949409;28;20151;-86
2021/04/22 01:22:53;;;;;;;8.40;4.27;;;;;;;4.92;60.77;100860.28;4952807;28;20045;-84
2021/04/22 01:25:32;;;;;;;13.23;3.97;;;;;;;4.94;60.76;100869.00;4953226;28;20139;-86
2021/04/22 01:27:59;;;;;;;14.40;4.33;;;;;;;4.92;59.98;100877.72;4946742;28;20042;-85
2021/04/22 01:30:31;;;;;;;11.37;4.40;;;;;;;4.76;59.91;100874.13;4950327;28;20047;-86
2021/04/22 01:32:58;;;;;;;8.60;3.80;;;;;;;4.77;60.87;100863.66;4951698;28;20061;-86
2021/04/22 01:35:28;;;;;;;7.27;3.77;;;;;;;4.83;60.43;100870.69;4953562;28;20042;-86
2021/04/22 01:37:55;;;;;;;9.17;4.03;;;;;;;4.79;60.75;100872.44;4954837;28;20039;-84
2021/04/22 01:40:22;;;;;;;10.73;4.60;;;;;;;4.82;60.06;100868.94;4953642;28;20055;-85
2021/04/22 01:42:48;;;;;;;12.03;4.20;;;;;;;4.73;61.29;100874.13;4937468;28;20122;-86
2021/04/22 01:45:14;;;;;;;9.93;3.93;;;;;;;4.72;60.68;100870.63;4951030;28;20444;-85
2021/04/22 01:47:42;;;;;;;13.37;4.60;;;;;;;4.75;60.56;100875.00;4938432;28;20359;-85
2021/04/22 01:50:11;;;;;;;9.37;3.73;;;;;;;4.59;60.53;100865.28;4939605;28;20109;-85
2021/04/22 01:52:37;;;;;;;8.30;3.60;;;;;;;4.59;61.51;100867.91;4954896;28;20130;-86
2021/04/22 01:55:05;;;;;;;11.57;3.90;;;;;;;4.59;61.45;100862.69;4937439;28;20044;-83
2021/04/22 01:57:31;;;;;;;15.87;4.47;;;;;;;4.58;62.23;100874.00;4941472;28;20066;-85
2021/04/22 01:59:59;;;;;;;9.87;4.17;;;;;;;4.59;61.96;100865.28;4957144;28;20043;-85
2021/04/22 02:02:25;;;;;;;10.57;4.43;;;;;;;4.60;61.82;100860.06;4954878;28;20050;-84
2021/04/22 02:04:51;;;;;;;10.20;4.30;;;;;;;4.61;61.72;100856.56;4956850;28;20062;-85
2021/04/22 02:07:17;;;;;;;10.97;3.83;;;;;;;4.52;62.34;100862.63;4941223;28;20182;-85
2021/04/22 02:09:43;;;;;;;10.50;4.90;;;;;;;4.59;62.78;100857.44;4940926;28;20053;-85
2021/04/22 02:12:10;;;;;;;11.53;4.00;;;;;;;4.55;62.01;100856.56;4956758;28;20038;-85
2021/04/22 02:14:36;;;;;;;14.37;5.10;;;;;;;4.60;62.51;100860.06;4967839;28;20097;-85
2021/04/22 02:17:03;;;;;;;14.93;3.93;;;;;;;4.61;62.53;100855.72;4972900;28;20038;-85
2021/04/22 02:19:29;;;;;;;9.87;4.53;;;;;;;4.53;61.98;100858.25;4956788;28;20046;-85
2021/04/22 02:21:55;;;;;;;9.67;3.33;;;;;;;4.55;63.11;100853.06;4956041;28;20046;-86
2021/04/22 02:24:21;;;;;;;10.27;5.13;;;;;;;4.51;62.62;100853.03;4972467;28;20082;-86
2021/04/22 02:26:47;;;;;;;16.53;4.00;;;;;;;4.57;63.38;100859.19;4957349;28;20047;-85
2021/04/22 02:29:14;;;;;;;7.20;4.37;;;;;;;4.47;63.31;100859.13;4940358;28;20042;-86
2021/04/22 02:31:40;;;;;;;14.53;4.00;;;;;;;4.54;62.49;100857.44;4953673;28;20039;-84
2021/04/22 02:34:06;;;;;;;15.73;5.67;;;;;;;4.52;63.30;100862.63;4967378;28;20043;-85
2021/04/22 02:36:32;;;;;;;15.57;5.67;;;;;;;4.50;62.37;100869.59;4954444;28;20385;-86
2021/04/22 02:38:59;;;;;;;7.83;3.77;;;;;;;4.41;63.11;100864.28;4954987;28;20042;-87
2021/04/22 02:41:25;;;;;;;14.90;4.93;;;;;;;4.41;63.18;100871.25;4952617;28;20051;-86
2021/04/22 02:43:51;;;;;;;12.23;4.63;;;;;;;4.30;63.19;100867.69;4952204;28;20436;-86
2021/04/22 02:46:17;;;;;;;11.80;4.20;;;;;;;4.32;64.09;100868.56;4956583;28;20047;-86
2021/04/22 02:48:43;;;;;;;14.83;4.70;;;;;;;4.38;64.39;100864.28;4940595;28;20046;-86
2021/04/22 02:51:10;;;;;;;10.07;4.37;;;;;;;4.26;64.00;100874.63;4940297;28;20174;-86
2021/04/22 02:53:38;;;;;;;11.23;3.70;;;;;;;4.28;65.32;100872.88;4964454;28;20663;-87
2021/04/22 02:56:05;;;;;;;13.57;4.87;;;;;;;4.30;65.14;100872.94;4954505;28;20047;-84
2021/04/22 02:58:31;;;;;;;13.03;4.83;;;;;;;4.29;64.16;100871.16;4955162;28;20047;-85
2021/04/22 03:00:57;;;;;;;8.83;3.67;;;;;;;4.30;65.17;100871.19;4939090;28;20042;-85
2021/04/22 03:03:23;;;;;;;12.70;4.27;;;;;;;4.16;65.57;100873.66;4945354;28;20097;-84
2021/04/22 03:05:50;;;;;;;12.27;3.97;;;;;;;4.23;65.61;100872.00;4965963;28;20062;-84
2021/04/22 03:08:16;;;;;;;14.63;4.27;;;;;;;4.27;65.87;100876.38;4955324;28;20046;-84
2021/04/22 03:10:43;;;;;;;16.90;5.47;;;;;;;4.31;65.28;100877.28;4937439;28;20046;-85
2021/04/22 03:13:10;;;;;;;8.10;3.63;;;;;;;4.30;65.80;100883.38;4954635;28;20126;-84
2021/04/22 03:15:36;;;;;;;11.53;4.10;;;;;;;4.25;66.06;100883.34;4951497;28;20043;-83
2021/04/22 03:18:06;;;;;;;6.97;3.47;;;;;;;4.36;65.98;100886.91;4937107;28;20126;-84
2021/04/22 03:20:32;;;;;;;8.07;3.67;;;;;;;4.28;65.69;100878.13;4938301;28;20105;-84
2021/04/22 03:22:59;;;;;;;14.47;5.53;;;;;;;4.21;66.50;100884.19;4939227;28;20528;-83
2021/04/22 03:25:27;;;;;;;8.20;4.77;;;;;;;4.18;66.84;100882.41;4936931;28;20140;-83
2021/04/22 03:27:53;;;;;;;12.00;4.07;;;;;;;4.04;67.73;100884.03;4939666;28;20499;-83
2021/04/22 03:30:23;;;;;;;18.60;4.53;;;;;;;4.12;67.18;100892.81;4971704;28;20043;-85
2021/04/22 03:32:50;;;;;;;12.77;4.37;;;;;;;4.06;67.30;100892.75;4956238;28;20468;-84
2021/04/22 03:35:17;;;;;;;12.23;4.13;;;;;;;4.04;67.85;100894.50;4939271;28;20042;-84
2021/04/22 03:37:43;;;;;;;9.80;3.77;;;;;;;3.99;67.93;100890.94;4950347;28;20047;-83
2021/04/22 03:40:12;;;;;;;11.27;4.90;;;;;;;4.07;68.18;100896.25;4938162;28;20049;-84
2021/04/22 03:42:38;;;;;;;10.07;4.53;;;;;;;3.97;68.22;100884.81;4972634;28;20043;-83
2021/04/22 03:45:10;;;;;;;12.60;4.47;;;;;;;3.91;69.03;100892.59;4938377;28;20039;-84
2021/04/22 03:47:37;;;;;;;11.17;4.40;;;;;;;3.89;68.94;100889.09;4972066;28;20118;-84
2021/04/22 03:50:06;;;;;;;12.37;4.93;;;;;;;3.88;68.69;100889.97;4939602;28;20137;-84
2021/04/22 03:52:32;;;;;;;11.80;4.30;;;;;;;3.78;69.56;100891.56;4955660;28;20039;-84
2021/04/22 03:54:58;;;;;;;14.37;4.67;;;;;;;3.77;70.06;100896.78;4939052;28;20592;-84
2021/04/22 03:57:24;;;;;;;12.97;4.60;;;;;;;3.79;69.56;100890.75;4955117;28;20658;-83
2021/04/22 03:59:51;;;;;;;9.70;4.37;;;;;;;3.75;69.81;100888.06;4939230;28;20050;-85
2021/04/22 04:02:18;;;;;;;13.07;4.63;;;;;;;3.62;70.22;100898.41;4939181;28;20129;-84
2021/04/22 04:04:45;;;;;;;8.60;3.60;;;;;;;3.60;70.73;100894.88;4954628;28;20500;-84
2021/04/22 04:07:11;;;;;;;10.27;5.23;;;;;;;3.65;70.66;100913.22;4955729;28;20066;-84
2021/04/22 04:09:38;;;;;;;8.13;3.90;;;;;;;3.65;70.58;100905.38;4955067;28;20046;-84
2021/04/22 04:12:05;;;;;;;12.27;4.83;;;;;;;3.52;71.10;100906.97;4938897;28;20066;-84
2021/04/22 04:14:34;;;;;;;9.63;4.10;;;;;;;3.48;71.61;100905.19;4954997;28;20045;-84
2021/04/22 04:17:01;;;;;;;7.70;3.67;;;;;;;3.43;71.72;100908.59;4954767;28;20049;-84
2021/04/22 04:19:28;;;;;;;11.40;4.17;;;;;;;3.39;71.87;100913.78;4954613;28;20046;-83
2021/04/22 04:21:54;;;;;;;13.53;4.57;;;;;;;3.44;71.82;100905.09;4939353;28;20043;-84
2021/04/22 04:24:20;;;;;;;13.30;4.27;;;;;;;3.43;72.12;100906.84;4955970;28;20039;-84
2021/04/22 04:26:46;;;;;;;12.33;4.07;;;;;;;3.33;72.75;100908.47;4940151;28;20762;-84
2021/04/22 04:29:13;;;;;;;13.00;4.57;;;;;;;3.34;72.86;100905.00;4938861;28;20686;-84
2021/04/22 04:31:39;;;;;;;11.10;4.47;;;;;;;3.41;71.87;100902.47;4953474;28;20066;-83
2021/04/22 04:34:05;;;;;;;10.50;4.07;;;;;;;3.31;73.03;100910.19;4937642;28;20423;-83
2021/04/22 04:36:31;;;;;;;12.43;4.80;;;;;;;3.33;73.11;100912.81;4936502;28;20563;-84
2021/04/22 04:38:58;;;;;;;10.67;5.53;;;;;;;3.35;73.15;100914.59;4936267;28;20070;-82
2021/04/22 04:41:24;;;;;;;9.40;3.80;;;;;;;3.43;73.71;100913.81;4953913;28;20051;-84
2021/04/22 04:43:50;;;;;;;8.80;4.00;;;;;;;3.51;72.93;100904.34;4937841;28;20043;-83
2021/04/22 04:46:18;;;;;;;10.10;5.00;;;;;;;3.51;73.55;100907.81;4936464;28;20043;-83
2021/04/22 04:48:45;;;;;;;10.27;6.30;;;;;;;3.61;73.14;100916.63;4953859;28;20051;-85
2021/04/22 04:51:13;;;;;;;68.80;33.97;;;;;;;3.69;73.22;100912.38;4956416;28;20062;-84
2021/04/22 04:53:39;;;;;;;35.57;20.20;;;;;;;3.79;72.35;100916.88;4971323;28;20149;-84
2021/04/22 04:56:07;;;;;;;142.23;76.17;;;;;;;3.81;72.12;100917.75;4955668;28;20064;-84
2021/04/22 04:58:36;;;;;;;54.63;29.10;;;;;;;3.92;72.43;100921.34;4971890;28;20050;-85
2021/04/22 05:01:02;;;;;;;42.77;22.87;;;;;;;4.00;71.68;100917.94;4935763;29;20126;-83
2021/04/22 05:03:28;;;;;;;57.17;38.97;;;;;;;4.08;71.15;100917.16;4952848;28;20047;-83
2021/04/22 05:05:55;;;;;;;14.33;8.50;;;;;;;4.07;71.51;100930.22;4970395;28;20066;-83
2021/04/22 05:08:22;;;;;;;11.30;6.73;;;;;;;4.14;70.89;100924.22;4939073;28;20077;-84
2021/04/22 05:10:48;;;;;;;16.37;5.87;;;;;;;4.14;70.63;100930.31;4954551;28;20046;-84
2021/04/22 05:13:14;;;;;;;20.37;6.97;;;;;;;4.19;70.90;100936.44;4970551;28;20138;-83
2021/04/22 05:15:40;;;;;;;15.57;5.73;;;;;;;4.09;69.90;100932.00;4969263;28;20046;-83
2021/04/22 05:18:06;;;;;;;13.03;8.53;;;;;;;4.05;70.25;100937.19;4954467;28;20627;-84
2021/04/22 05:20:33;;;;;;;7.90;4.10;;;;;;;4.01;71.87;100935.38;4970430;28;20099;-83
2021/04/22 05:22:59;;;;;;;10.43;4.57;;;;;;;3.98;71.52;100932.75;4937821;28;20133;-83
2021/04/22 05:25:26;;;;;;;17.97;8.63;;;;;;;3.94;71.83;100937.06;4937721;28;20035;-83
2021/04/22 05:27:54;;;;;;;16.83;7.87;;;;;;;4.05;72.34;100940.69;4939370;28;20110;-84
2021/04/22 05:30:21;;;;;;;16.80;5.33;;;;;;;4.11;71.46;100948.56;4937046;28;20051;-83
2021/04/22 05:32:47;;;;;;;23.10;18.07;;;;;;;4.04;71.94;100944.16;4956155;28;20054;-84
2021/04/22 05:35:14;;;;;;;11.57;5.30;;;;;;;4.13;71.77;100951.22;4955997;28;20049;-84
2021/04/22 05:37:49;;;;;;;23.10;17.90;;;;;;;4.18;71.17;100939.06;4957412;28;20043;-84
2021/04/22 05:40:16;;;;;;;9.60;6.40;;;;;;;4.13;72.12;100951.22;4955621;28;20050;-83
2021/04/22 05:42:42;;;;;;;13.23;11.53;;;;;;;4.29;71.32;100947.91;4955253;28;20097;-84
2021/04/22 05:45:13;;;;;;;11.80;5.30;;;;;;;4.36;71.83;100943.56;4956331;28;20046;-84
2021/04/22 05:47:40;;;;;;;12.83;4.90;;;;;;;4.38;71.37;100947.97;4955892;28;20633;-83
2021/04/22 05:50:07;;;;;;;14.80;7.17;;;;;;;4.38;71.33;100953.22;4939782;28;20438;-83
2021/04/22 05:52:33;;;;;;;19.67;12.73;;;;;;;4.46;71.17;100951.56;4939950;28;20098;-84
2021/04/22 05:54:59;;;;;;;12.60;5.43;;;;;;;4.46;71.25;100954.16;4955811;28;20105;-85
2021/04/22 05:57:26;;;;;;;13.80;7.10;;;;;;;4.51;71.29;100949.81;4956387;28;20047;-83
2021/04/22 05:59:52;;;;;;;15.87;10.87;;;;;;;4.52;71.55;100948.97;4940117;28;20039;-84
2021/04/22 06:02:20;;;;;;;24.57;14.10;;;;;;;4.72;69.45;100954.38;4953568;28;20492;-82
2021/04/22 06:04:46;;;;;;;16.83;8.40;;;;;;;4.74;70.87;100954.38;4937019;28;20039;-84
2021/04/22 06:07:12;;;;;;;30.47;22.53;;;;;;;4.81;70.04;100953.56;4952880;28;20075;-83
2021/04/22 06:09:38;;;;;;;18.43;13.67;;;;;;;4.89;69.79;100951.03;4969488;28;20042;-84
2021/04/22 06:12:06;;;;;;;12.40;8.47;;;;;;;5.01;69.55;100954.59;4937378;28;20053;-83
2021/04/22 06:14:33;;;;;;;17.83;7.73;;;;;;;5.24;69.55;100951.25;4953261;28;20046;-85
2021/04/22 06:16:59;;;;;;;18.77;16.13;;;;;;;5.37;69.25;100945.19;4952900;28;20070;-84
2021/04/22 06:19:25;;;;;;;14.43;4.70;;;;;;;5.74;67.40;100954.13;4937370;28;20057;-83
2021/04/22 06:21:51;;;;;;;10.93;6.27;;;;;;;6.06;65.73;100954.25;4953931;28;20046;-83
2021/04/22 06:24:17;;;;;;;10.87;6.93;;;;;;;6.30;65.30;100963.03;4952438;28;20109;-84
2021/04/22 06:26:44;;;;;;;17.13;12.53;;;;;;;6.89;62.97;100954.31;4953341;28;20046;-84
2021/04/22 06:29:11;;;;;;;10.13;3.73;;;;;;;7.20;60.88;100950.78;4953663;28;20051;-83
2021/04/22 06:31:38;;;;;;;10.37;3.73;;;;;;;7.71;57.99;100948.00;4967964;28;20038;-83
2021/04/22 06:34:05;;;;;;;10.77;4.93;;;;;;;8.65;55.83;100943.94;4953005;28;20062;-83
2021/04/22 06:36:31;;;;;;;7.17;2.83;;;;;;;9.13;54.85;100953.16;4956984;28;20101;-84
2021/04/22 06:38:58;;;;;;;7.93;3.23;;;;;;;9.18;54.37;100966.31;4972561;28;20047;-82
2021/04/22 06:41:24;;;;;;;17.00;7.33;;;;;;;8.28;56.38;100952.06;4955697;28;20063;-82
2021/04/22 06:43:50;;;;;;;22.43;10.00;;;;;;;7.79;56.02;100951.47;4941001;28;20054;-82
2021/04/22 06:46:17;;;;;;;18.07;7.43;;;;;;;7.87;57.89;100973.34;4963362;28;20050;-83
2021/04/22 06:48:43;;;;;;;17.10;8.27;;;;;;;7.60;57.21;100966.44;4950126;28;20053;-83
2021/04/22 06:51:10;;;;;;;16.10;9.67;;;;;;;7.82;57.20;100975.13;4939693;28;20047;-83
2021/04/22 06:53:36;;;;;;;16.70;10.33;;;;;;;7.73;57.38;100970.75;4940523;28;20106;-83
2021/04/22 06:56:04;;;;;;;15.40;6.17;;;;;;;7.44;57.72;100972.63;4955572;28;20089;-82
2021/04/22 06:58:30;;;;;;;14.03;5.23;;;;;;;7.85;57.20;100964.59;4957738;28;20130;-82
2021/04/22 07:00:57;;;;;;;9.47;3.70;;;;;;;7.61;56.08;100983.97;4944988;28;20043;-84
2021/04/22 07:03:23;;;;;;;9.37;3.80;;;;;;;7.59;57.19;100975.22;4956205;28;20480;-82
2021/04/22 07:05:50;;;;;;;9.73;3.27;;;;;;;7.97;56.46;100977.69;4956311;28;20098;-83
2021/04/22 07:08:16;;;;;;;11.37;4.17;;;;;;;8.19;54.72;100981.97;4956356;28;20054;-83
2021/04/22 07:10:43;;;;;;;15.00;5.80;;;;;;;8.33;56.50;100981.03;4971977;28;20493;-83
2021/04/22 07:13:11;;;;;;;8.43;3.23;;;;;;;8.39;54.80;100986.25;4972190;28;20504;-83
2021/04/22 07:15:37;;;;;;;11.90;3.33;;;;;;;8.25;54.83;100996.84;4955157;28;20039;-84
2021/04/22 07:18:06;;;;;;;7.70;4.10;;;;;;;8.32;54.77;100997.66;4956072;28;20065;-85
2021/04/22 07:20:32;;;;;;;12.50;7.93;;;;;;;8.73;55.04;100981.63;4939199;28;20122;-84
2021/04/22 07:22:59;;;;;;;10.37;2.67;;;;;;;9.01;54.04;100988.44;4955799;28;20043;-84
2021/04/22 07:25:30;;;;;;;8.07;3.13;;;;;;;9.13;54.54;101026.97;4955640;28;20093;-84
2021/04/22 07:27:57;;;;;;;12.97;10.57;;;;;;;8.33;53.44;101004.72;4940075;28;20050;-86
2021/04/22 07:30:24;;;;;;;5.63;3.07;;;;;;;8.30;54.38;100995.03;4966523;28;20058;-84
2021/04/22 07:32:54;;;;;;;6.97;4.03;;;;;;;8.70;55.18;101002.72;4955300;28;20130;-84
2021/04/22 07:35:21;;;;;;;59.07;33.13;;;;;;;8.88;52.13;100999.06;4955819;28;20417;-83
2021/04/22 07:37:48;;;;;;;11.77;4.03;;;;;;;9.53;53.31;100987.03;4939099;28;20047;-83
2021/04/22 07:40:20;;;;;;;52.23;31.47;;;;;;;9.58;53.02;101012.47;4954111;28;20049;-81
2021/04/22 07:42:47;;;;;;;12.17;3.40;;;;;;;8.92;51.06;101011.34;4956016;28;20043;-83
2021/04/22 07:45:15;;;;;;;32.95;18.10;;;;;;;9.09;51.40;100991.00;4954346;28;20043;-82
2021/04/22 07:47:41;;;;;;;13.47;5.17;;;;;;;9.38;52.13;101008.28;4966308;28;20128;-85
2021/04/22 07:50:10;;;;;;;9.00;3.33;;;;;;;9.42;51.96;100999.47;4947717;28;20042;-85
2021/04/22 07:52:36;;;;;;;19.33;12.30;;;;;;;9.30;52.97;101019.78;4941063;28;20415;-85
2021/04/22 07:55:07;;;;;;;13.43;4.93;;;;;;;9.14;52.12;101012.91;4957328;28;20051;-83
2021/04/22 07:57:33;;;;;;;7.97;3.47;;;;;;;8.75;52.44;101022.03;4938924;28;20043;-83
2021/04/22 07:59:59;;;;;;;7.77;4.23;;;;;;;8.71;53.28;101022.91;4942045;28;20536;-84
2021/04/22 08:02:38;;;;;;;11.67;3.00;;;;;;;8.48;53.32;101027.44;4956372;28;20555;-86
2021/04/22 08:05:06;;;;;;;73.40;22.33;;;;;;;8.86;54.08;101030.72;4952468;28;20039;-84
2021/04/22 08:07:32;;;;;;;76.30;59.23;;;;;;;8.57;51.83;101022.13;4967958;28;20075;-82
2021/04/22 08:09:58;;;;;;;19.10;9.63;;;;;;;8.45;52.01;101023.97;4953597;28;20046;-84
2021/04/22 08:12:24;;;;;;;5.53;2.30;;;;;;;8.82;54.03;101018.44;4954152;28;20047;-84
2021/04/22 08:14:53;;;;;;;14.20;9.83;;;;;;;9.12;53.08;101013.81;4938826;28;20530;-84
2021/04/22 08:17:19;;;;;;;7.20;2.87;;;;;;;9.53;51.03;101013.41;4965382;28;20756;-81
2021/04/22 08:19:45;;;;;;;21.87;11.27;;;;;;;9.76;50.46;101016.69;4997755;23;20585;-81
2021/04/22 08:22:11;;;;;;;10.35;2.95;;;;;;;9.96;50.80;101026.13;4961405;28;20581;-82
2021/04/22 08:24:37;;;;;;;11.00;6.15;;;;;;;9.88;49.07;101018.28;4980787;28;20080;-83
2021/04/22 08:27:04;;;;;;;13.13;5.55;;;;;;;9.69;48.46;101016.75;4965035;28;20042;-82
2021/04/22 08:29:30;;;;;;;7.83;3.80;;;;;;;9.59;48.93;101022.16;4983253;28;20050;-82
2021/04/22 08:31:58;;;;;;;8.18;2.60;;;;;;;9.68;50.01;101022.94;4984420;28;20045;-82
2021/04/22 08:34:26;;;;;;;9.63;3.30;;;;;;;9.83;51.02;101013.03;4966489;28;20102;-81
2021/04/22 08:36:53;;;;;;;7.65;3.33;;;;;;;9.76;49.61;101021.97;4983484;28;20045;-82
2021/04/22 08:39:20;;;;;;;12.80;8.32;;;;;;;9.81;46.15;101020.13;5015916;28;20054;-82
2021/04/22 08:41:46;;;;;;;17.42;10.98;;;;;;;9.59;46.96;101022.16;4984179;28;20482;-82
2021/04/22 08:44:13;;;;;;;6.97;2.28;;;;;;;9.88;46.87;101028.84;4965884;28;20042;-81
2021/04/22 08:46:42;;;;;;;20.17;12.80;;;;;;;10.21;47.87;101024.91;4984994;28;20048;-81
2021/04/22 08:49:11;;;;;;;25.33;16.65;;;;;;;10.41;47.75;101016.75;4998557;28;20119;-81
2021/04/22 08:51:37;;;;;;;8.70;5.10;;;;;;;10.53;44.98;101003.38;4983037;28;20048;-82
2021/04/22 08:54:04;;;;;;;4.80;2.17;;;;;;;10.53;45.84;101013.94;4999931;28;20053;-82
2021/04/22 08:56:34;;;;;;;7.68;2.63;;;;;;;10.71;44.65;101021.59;5015829;28;20050;-81
2021/04/22 08:59:01;;;;;;;26.75;15.77;;;;;;;11.25;45.39;101015.41;4960396;28;20042;-82
2021/04/22 09:01:28;;;;;;;10.18;4.82;;;;;;;11.57;45.85;101020.13;4996564;28;20481;-81
2021/04/22 09:03:55;;;;;;;5.75;2.40;;;;;;;11.61;45.59;101029.75;4966802;28;20104;-81
2021/04/22 09:06:22;;;;;;;10.57;4.95;;;;;;;11.03;44.28;101030.78;4999144;28;20068;-82
2021/04/22 09:08:52;;;;;;;25.88;17.98;;;;;;;11.30;46.05;101021.50;4965743;28;20108;-84
2021/04/22 09:11:26;;;;;;;5.30;2.03;;;;;;;10.76;43.64;101036.50;5008333;28;20050;-82
2021/04/22 09:13:56;;;;;;;6.82;2.97;;;;;;;11.08;42.69;101054.50;4989001;28;20097;-81
2021/04/22 09:16:27;;;;;;;7.05;2.40;;;;;;;10.96;44.02;101048.50;4982610;28;20053;-81
2021/04/22 09:19:06;;;;;;;6.82;2.33;;;;;;;11.31;43.98;101041.75;4980527;28;20470;-81
2021/04/22 09:21:34;;;;;;;9.85;3.92;;;;;;;11.34;43.21;101044.34;4996523;28;20050;-81
2021/04/22 09:24:07;;;;;;;8.35;2.75;;;;;;;11.67;43.29;101042.84;4993716;28;20168;-81
2021/04/22 09:26:56;;;;;;;8.65;3.80;;;;;;;11.22;41.89;101060.44;4977501;28;20076;-82
2021/04/22 09:29:39;;;;;;;25.98;20.48;;;;;;;11.05;44.05;101057.19;4986136;28;20069;-82
2021/04/22 09:32:07;;;;;;;6.35;2.60;;;;;;;11.05;43.40;101058.06;4970633;28;20050;-83
2021/04/22 09:34:35;;;;;;;8.27;3.67;;;;;;;11.30;43.23;101058.53;4985675;28;20034;-81
2021/04/22 09:37:05;;;;;;;7.65;2.83;;;;;;;11.20;43.33;101060.47;4983723;28;20104;-82
2021/04/22 09:39:33;;;;;;;5.60;2.42;;;;;;;10.84;43.27;101053.09;4984068;28;20102;-82
2021/04/22 09:42:04;;;;;;;13.38;7.38;;;;;;;10.66;42.52;101081.53;4980667;28;20140;-82
2021/04/22 09:44:31;;;;;;;9.55;2.72;;;;;;;10.41;43.44;101074.84;4981619;28;20057;-84
2021/04/22 09:47:06;;;;;;;10.48;3.85;;;;;;;10.37;43.91;101060.81;4982977;28;20038;-81
2021/04/22 09:49:45;;;;;;;15.88;8.43;;;;;;;11.05;45.01;101067.78;4978432;28;20470;-83
2021/04/22 09:52:14;;;;;;;6.50;2.58;;;;;;;11.21;44.02;101069.28;4996778;28;20193;-80
2021/04/22 09:54:44;;;;;;;6.38;2.40;;;;;;;10.93;42.21;101079.38;4963048;28;20046;-82
2021/04/22 09:57:19;;;;;;;15.25;9.73;;;;;;;10.55;45.19;101078.19;4981622;28;20045;-81
2021/04/22 09:59:45;;;;;;;10.40;6.03;;;;;;;10.68;44.68;101089.47;4978668;28;20100;-82
2021/04/22 10:02:11;;;;;;;5.32;2.50;;;;;;;11.01;43.97;101082.78;4998817;28;20065;-82
2021/04/22 10:04:43;;;;;;;6.50;2.50;;;;;;;11.23;40.76;101088.63;4983291;28;20577;-82
2021/04/22 10:07:24;;;;;;;55.45;33.33;;;;;;;11.78;40.48;101079.75;4982081;28;20053;-81
2021/04/22 10:09:56;;;;;;;50.03;42.88;;;;;;;11.70;41.36;101081.66;4982853;28;20050;-81
2021/04/22 10:12:27;;;;;;;4.80;2.78;;;;;;;11.50;41.84;101082.00;4969981;28;20050;-82
2021/04/22 10:14:58;;;;;;;5.68;1.55;;;;;;;11.64;42.48;101089.69;4988655;28;20041;-82
2021/04/22 10:17:25;;;;;;;9.10;2.28;;;;;;;11.18;42.95;101079.88;4985672;28;20045;-82
2021/04/22 10:20:05;;;;;;;4.03;1.90;;;;;;;11.29;42.09;101077.97;4967883;28;20553;-83
2021/04/22 10:22:37;;;;;;;5.97;1.67;;;;;;;11.77;42.57;101092.09;4982627;28;20046;-84
2021/04/22 10:25:10;;;;;;;5.68;1.83;;;;;;;12.23;41.81;101077.13;4983545;28;20202;-83
2021/04/22 10:27:39;;;;;;;4.60;1.90;;;;;;;12.24;39.72;101086.81;4984981;28;20069;-82
2021/04/22 10:30:09;;;;;;;4.38;1.65;;;;;;;12.63;41.09;101077.13;4970898;28;20042;-85
2021/04/22 10:32:39;;;;;;;5.97;1.80;;;;;;;12.91;39.58;101080.91;5002535;28;20046;-82
2021/04/22 10:35:12;;;;;;;4.35;1.77;;;;;;;12.72;39.91;101076.06;4986269;28;20065;-83
2021/04/22 10:37:40;;;;;;;5.63;2.95;;;;;;;12.48;39.67;101093.38;4985241;28;20041;-81
2021/04/22 10:40:09;;;;;;;2.70;1.65;;;;;;;12.50;39.80;101087.13;5001190;28;20042;-83
2021/04/22 10:42:38;;;;;;;4.53;2.38;;;;;;;12.57;40.13;101069.31;4983762;28;20498;-82
2021/04/22 10:45:08;;;;;;;7.50;2.25;;;;;;;13.06;39.21;101078.78;4982853;28;20061;-83
2021/04/22 10:47:34;;;;;;;4.00;1.40;;;;;;;13.02;36.48;101082.41;4970334;28;20054;-81
2021/04/22 10:50:01;;;;;;;4.75;1.65;;;;;;;13.27;37.28;101085.38;4981785;28;20053;-82
2021/04/22 10:52:27;;;;;;;10.65;2.22;;;;;;;13.04;34.83;101085.94;4960095;28;20050;-81
2021/04/22 10:54:54;;;;;;;12.23;2.47;;;;;;;13.62;35.84;101084.47;4999675;28;20041;-81
2021/04/22 10:57:22;;;;;;;3.50;1.50;;;;;;;13.17;34.80;101067.00;4981450;28;20053;-80
2021/04/22 11:00:01;;;;;;;4.28;1.65;;;;;;;13.18;34.73;101062.56;4994730;28;20050;-82
2021/04/22 11:02:57;;;;;;;3.20;1.40;;;;;;;12.80;34.95;101064.38;4976315;28;20038;-82
2021/04/22 11:05:29;;;;;;;4.68;1.67;;;;;;;12.46;37.60;101074.84;4951987;28;20092;-82
2021/04/22 11:08:08;;;;;;;6.85;1.30;;;;;;;12.86;36.67;101080.16;4978364;28;20096;-83
2021/04/22 11:10:42;;;;;;;4.57;1.52;;;;;;;12.74;35.71;101077.75;4978930;28;20086;-82
2021/04/22 11:13:27;;;;;;;5.28;2.45;;;;;;;12.03;35.29;101083.69;4977918;28;20073;-83
2021/04/22 11:15:53;;;;;;;5.93;1.40;;;;;;;11.83;36.42;101070.81;4974026;28;20058;-81
2021/04/22 11:18:19;;;;;;;3.95;1.23;;;;;;;11.81;37.19;101083.22;4993867;28;20065;-81
2021/04/22 11:20:46;;;;;;;4.25;1.42;;;;;;;11.52;37.05;101083.72;4975923;28;20090;-82
2021/04/22 11:23:19;;;;;;;4.38;2.10;;;;;;;11.37;39.09;101091.06;4976262;28;20117;-81
2021/04/22 11:25:46;;;;;;;4.63;1.50;;;;;;;10.64;38.96;101083.34;4974096;28;20069;-83
2021/04/22 11:28:16;;;;;;;4.07;1.63;;;;;;;11.33;39.74;101084.94;4992257;28;20038;-81